»·PEaware :: ASA2680 KRNO-KSJC

ASA2680 :: KRNO-KSJC

FLIGHT INFORMATION

Flight Status: Arrived
Operator:
Alaska Airlines
More flights by this operator :: More flights under this callsign
Pilot: Kyle M. (9350)
Aircraft: AIRBUS A319
(A319)
More flights by this aircraft type
Origin: KRNO Reno/Tahoe Intl
United States
Destination: KSJC Mineta San Jose Intl
United States
More flights between these airports :: More routes between these airports
Route: ZEFFR6 DARBI STUBL RAZRR4
File this flight plan on PilotEdge
Remarks: RMK / SIMBRIEF CptCanada on YT!
Altitude:
(Current/Filed)
28,000ft
Speed:
(Current/Filed)
386kts
Departed: 04-Feb-20 01:41 PM
Arrived: 04-Feb-20 02:22 PM
Distance/Time
Traveled:
163nm/0:41
Distance/Time
To Go:
Arrived

Flight Plot

Page will automatically refresh every two minutes.

Flight plan parsing failed; only flown route is shown


Map Options




Map Legend


Flown Route
Filed Route
Departure Airport
Arrival Airport
Navaid (VOR, NDB)
Fix

Horizontal Profiles

Position Reports

Time Latitude Longitude Heading Altitude Ground
Speed
04-Feb-20 13:27 39.507432 -119.773471 198 4424ft 0kts
04-Feb-20 13:28 39.507432 -119.773471 198 4424ft 0kts
04-Feb-20 13:29 39.507432 -119.773471 198 4424ft 0kts
04-Feb-20 13:30 39.507432 -119.773471 198 4424ft 0kts
04-Feb-20 13:31 39.507432 -119.773471 198 4424ft 0kts
04-Feb-20 13:32 39.507436 -119.773469 198 4424ft 1kts
04-Feb-20 13:33 39.507939 -119.773289 150 4424ft 2kts
04-Feb-20 13:34 39.508021 -119.773542 88 4424ft 0kts
04-Feb-20 13:35 39.508021 -119.773542 88 4424ft 0kts
04-Feb-20 13:36 39.508014 -119.772293 91 4424ft 2kts
04-Feb-20 13:37 39.508268 -119.771495 5 4424ft 7kts
04-Feb-20 13:38 39.511397 -119.771478 1 4424ft 13kts
04-Feb-20 13:39 39.513747 -119.770219 93 4424ft 9kts
04-Feb-20 13:40 39.504012 -119.769238 180 4424ft 128kts
04-Feb-20 13:41 39.455000 -119.769092 180 6398ft 186kts
04-Feb-20 13:42 39.396982 -119.769672 179 8189ft 236kts
04-Feb-20 13:43 39.320811 -119.769933 179 10185ft 303kts
04-Feb-20 13:44 39.225577 -119.766505 176 11823ft 376kts
04-Feb-20 13:45 39.117531 -119.762307 177 14575ft 401kts
04-Feb-20 13:46 39.002820 -119.757986 178 17074ft 423kts
04-Feb-20 13:47 38.891969 -119.753907 178 19359ft 435kts
04-Feb-20 13:48 38.764627 -119.749230 177 21624ft 446kts
04-Feb-20 13:49 38.638525 -119.744497 177 23360ft 462kts
04-Feb-20 13:50 38.508436 -119.739581 177 24947ft 476kts
04-Feb-20 13:51 38.373940 -119.734465 177 26408ft 491kts
04-Feb-20 13:52 38.235858 -119.743992 190 27711ft 505kts
04-Feb-20 13:53 38.095834 -119.773474 190 28272ft 513kts
04-Feb-20 13:54 37.954800 -119.802073 189 28272ft 513kts
04-Feb-20 13:55 37.814544 -119.830254 189 28269ft 513kts
04-Feb-20 13:56 37.673611 -119.858525 189 28264ft 514kts
04-Feb-20 13:57 37.532137 -119.886823 189 28264ft 514kts
04-Feb-20 13:58 37.390902 -119.914903 189 28068ft 515kts
04-Feb-20 13:59 37.253205 -119.950878 217 26379ft 488kts
04-Feb-20 14:00 37.211024 -120.084074 277 24839ft 418kts
04-Feb-20 14:01 37.198370 -120.228466 273 23293ft 411kts
04-Feb-20 14:02 37.183190 -120.368687 273 21755ft 399kts
04-Feb-20 14:03 37.168282 -120.504761 272 19823ft 390kts
04-Feb-20 14:04 37.153376 -120.637737 272 17813ft 381kts
04-Feb-20 14:05 37.138872 -120.766226 270 15744ft 375kts
04-Feb-20 14:06 37.124792 -120.894367 269 13656ft 368kts
04-Feb-20 14:07 37.110612 -121.020581 267 11630ft 360kts
04-Feb-20 14:08 37.101077 -121.142908 278 9940ft 335kts
04-Feb-20 14:09 37.112347 -121.246541 283 9831ft 274kts
04-Feb-20 14:10 37.123209 -121.340877 282 8570ft 270kts
04-Feb-20 14:11 37.133480 -121.431707 282 7539ft 256kts
04-Feb-20 14:12 37.143243 -121.519011 282 6372ft 248kts
04-Feb-20 14:13 37.152615 -121.603768 282 5277ft 243kts
04-Feb-20 14:14 37.161791 -121.687272 281 4131ft 239kts
04-Feb-20 14:15 37.196663 -121.747791 323 3996ft 198kts
04-Feb-20 14:16 37.236538 -121.791136 322 3189ft 187kts
04-Feb-20 14:17 37.273174 -121.831505 322 2257ft 164kts
04-Feb-20 14:18 37.306843 -121.868550 320 1380ft 146kts
04-Feb-20 14:19 37.334800 -121.899306 321 650ft 131kts
04-Feb-20 14:20 37.361717 -121.928801 318 67ft 97kts
04-Feb-20 14:21 37.368459 -121.932403 47 67ft 14kts
04-Feb-20 14:22 37.367158 -121.928984 138 67ft 16kts
04-Feb-20 14:23 37.364744 -121.925844 49 67ft 7kts

Navigation Log

Ident Type
Flight plan parsing failed, navigation log unavailable